createdAt,value
2022-08-29T00:00:20.000Z,0
2022-08-29T00:01:36.000Z,0
2022-08-29T00:02:51.000Z,0
2022-08-29T00:05:24.000Z,0
2022-08-29T00:06:40.000Z,0
2022-08-29T00:07:56.000Z,0
2022-08-29T00:09:12.000Z,0
2022-08-29T00:10:28.000Z,0
2022-08-29T00:11:45.000Z,0
2022-08-29T00:13:00.000Z,0
2022-08-29T00:14:15.000Z,0
2022-08-29T00:15:30.000Z,0
2022-08-29T00:16:45.000Z,0
2022-08-29T00:18:02.000Z,0
2022-08-29T00:19:18.000Z,0
2022-08-29T00:20:34.000Z,0
2022-08-29T00:21:50.000Z,0
2022-08-29T00:23:06.000Z,0
2022-08-29T00:24:23.000Z,0
2022-08-29T00:25:39.000Z,0
2022-08-29T00:26:55.000Z,0
2022-08-29T00:28:11.000Z,0
2022-08-29T00:29:27.000Z,0
2022-08-29T00:30:44.000Z,0
2022-08-29T00:32:00.000Z,0
2022-08-29T00:33:15.000Z,0
2022-08-29T00:34:31.000Z,0
2022-08-29T00:35:47.000Z,0
2022-08-29T00:37:04.000Z,0
2022-08-29T00:38:20.000Z,0
2022-08-29T00:39:36.000Z,0
2022-08-29T00:40:52.000Z,0
2022-08-29T00:43:24.000Z,0
2022-08-29T00:44:39.000Z,0
2022-08-29T00:45:55.000Z,0
2022-08-29T00:47:10.000Z,0
2022-08-29T00:48:25.000Z,0
2022-08-29T00:49:42.000Z,0
2022-08-29T00:50:58.000Z,0
2022-08-29T00:52:14.000Z,0
2022-08-29T00:53:30.000Z,0
2022-08-29T00:54:46.000Z,0
2022-08-29T00:56:03.000Z,0
2022-08-29T00:57:19.000Z,0
2022-08-29T00:58:35.000Z,0
2022-08-29T00:59:51.000Z,0
2022-08-29T01:01:07.000Z,0
2022-08-29T01:02:24.000Z,0
2022-08-29T01:03:40.000Z,0
2022-08-29T01:04:56.000Z,0
2022-08-29T01:06:11.000Z,0
2022-08-29T01:08:44.000Z,0
2022-08-29T01:10:00.000Z,0
2022-08-29T01:11:16.000Z,0
2022-08-29T01:12:32.000Z,0
2022-08-29T01:13:48.000Z,0
2022-08-29T01:15:04.000Z,0
2022-08-29T01:16:19.000Z,0
2022-08-29T01:17:34.000Z,0
2022-08-29T01:18:49.000Z,0
2022-08-29T01:20:05.000Z,0
2022-08-29T01:21:22.000Z,0
2022-08-29T01:22:38.000Z,0
2022-08-29T01:23:54.000Z,0
2022-08-29T01:25:10.000Z,0
2022-08-29T01:26:26.000Z,0
2022-08-29T01:27:43.000Z,0
2022-08-29T01:28:59.000Z,0
2022-08-29T01:30:15.000Z,0
2022-08-29T01:31:31.000Z,0
2022-08-29T01:32:47.000Z,0
2022-08-29T01:34:04.000Z,0
2022-08-29T01:35:20.000Z,0
2022-08-29T01:36:35.000Z,0
2022-08-29T01:37:51.000Z,0
2022-08-29T01:39:07.000Z,0
2022-08-29T01:40:24.000Z,0
2022-08-29T01:41:40.000Z,0
2022-08-29T01:42:56.000Z,0
2022-08-29T01:44:11.000Z,0
2022-08-29T01:46:43.000Z,0
2022-08-29T01:47:58.000Z,0
2022-08-29T01:49:13.000Z,0
2022-08-29T01:50:29.000Z,0
2022-08-29T01:51:45.000Z,0
2022-08-29T01:53:02.000Z,0
2022-08-29T01:54:18.000Z,0
2022-08-29T01:55:34.000Z,0
2022-08-29T01:56:50.000Z,0
2022-08-29T01:58:06.000Z,0
2022-08-29T01:59:23.000Z,0
2022-08-29T02:00:39.000Z,0
2022-08-29T02:01:55.000Z,0
2022-08-29T02:03:11.000Z,0
2022-08-29T02:04:27.000Z,0
2022-08-29T02:05:43.000Z,0
2022-08-29T02:06:59.000Z,0
2022-08-29T02:08:15.000Z,0
2022-08-29T02:09:30.000Z,0
2022-08-29T02:12:03.000Z,0
2022-08-29T02:13:19.000Z,0
2022-08-29T02:14:35.000Z,0
2022-08-29T02:15:50.000Z,0
2022-08-29T02:17:05.000Z,0
2022-08-29T02:18:21.000Z,0
2022-08-29T02:19:36.000Z,0
2022-08-29T02:20:52.000Z,0
2022-08-29T02:22:08.000Z,0
2022-08-29T02:24:41.000Z,0
2022-08-29T02:25:57.000Z,0
2022-08-29T02:27:13.000Z,0
2022-08-29T02:28:29.000Z,0
2022-08-29T02:29:45.000Z,0
2022-08-29T02:31:02.000Z,0
2022-08-29T02:32:18.000Z,0
2022-08-29T02:33:34.000Z,0
2022-08-29T02:34:50.000Z,0
2022-08-29T02:37:22.000Z,0
2022-08-29T02:38:37.000Z,0
2022-08-29T02:39:52.000Z,0
2022-08-29T02:41:08.000Z,0
2022-08-29T02:42:24.000Z,0
2022-08-29T02:43:41.000Z,0
2022-08-29T02:44:57.000Z,0
2022-08-29T02:46:13.000Z,0
2022-08-29T02:48:45.000Z,0
2022-08-29T02:50:02.000Z,0
2022-08-29T02:51:18.000Z,0
2022-08-29T02:52:34.000Z,0
2022-08-29T02:53:50.000Z,0
2022-08-29T02:55:06.000Z,0
2022-08-29T02:56:22.000Z,0
2022-08-29T02:57:38.000Z,0
2022-08-29T02:58:54.000Z,0
2022-08-29T03:00:10.000Z,0
2022-08-29T03:01:26.000Z,0
2022-08-29T03:02:43.000Z,0
2022-08-29T03:03:59.000Z,0
2022-08-29T03:05:15.000Z,0
2022-08-29T03:06:30.000Z,0
2022-08-29T03:07:45.000Z,0
2022-08-29T03:09:02.000Z,0
2022-08-29T03:10:17.000Z,0
2022-08-29T03:11:32.000Z,0
2022-08-29T03:12:48.000Z,0
2022-08-29T03:14:04.000Z,0
2022-08-29T03:15:21.000Z,0
2022-08-29T03:16:37.000Z,0
2022-08-29T03:17:53.000Z,0
2022-08-29T03:19:09.000Z,0
2022-08-29T03:20:25.000Z,0
2022-08-29T03:21:41.000Z,0
2022-08-29T03:22:58.000Z,0
2022-08-29T03:24:14.000Z,0
2022-08-29T03:25:30.000Z,0
2022-08-29T03:26:46.000Z,0
2022-08-29T03:28:01.000Z,0
2022-08-29T03:29:18.000Z,0
2022-08-29T03:30:34.000Z,0
2022-08-29T03:31:50.000Z,0
2022-08-29T03:33:06.000Z,0
2022-08-29T03:34:22.000Z,0
2022-08-29T03:35:39.000Z,0
2022-08-29T03:36:54.000Z,0
2022-08-29T03:38:09.000Z,0
2022-08-29T03:39:25.000Z,0
2022-08-29T03:40:41.000Z,0
2022-08-29T03:41:57.000Z,0
2022-08-29T03:43:13.000Z,0
2022-08-29T03:44:29.000Z,0
2022-08-29T03:45:45.000Z,0
2022-08-29T03:47:02.000Z,0
2022-08-29T03:48:18.000Z,0
2022-08-29T03:49:34.000Z,0
2022-08-29T03:50:50.000Z,0
2022-08-29T03:52:06.000Z,0
2022-08-29T03:53:23.000Z,0
2022-08-29T03:54:39.000Z,0
2022-08-29T03:55:55.000Z,0
2022-08-29T03:57:11.000Z,0
2022-08-29T03:58:27.000Z,0
2022-08-29T03:59:43.000Z,0
2022-08-29T04:00:59.000Z,0
2022-08-29T04:02:15.000Z,0
2022-08-29T04:03:31.000Z,0
2022-08-29T04:04:47.000Z,0
2022-08-29T04:06:03.000Z,0
2022-08-29T04:07:20.000Z,0
2022-08-29T04:08:35.000Z,0
2022-08-29T04:09:50.000Z,0
2022-08-29T04:11:05.000Z,0
2022-08-29T04:12:21.000Z,0
2022-08-29T04:13:37.000Z,0
2022-08-29T04:14:53.000Z,0
2022-08-29T04:16:09.000Z,0
2022-08-29T04:17:25.000Z,0
2022-08-29T04:18:42.000Z,0
2022-08-29T04:19:58.000Z,0
2022-08-29T04:21:14.000Z,0
2022-08-29T04:22:30.000Z,0
2022-08-29T04:23:46.000Z,5
2022-08-29T04:25:02.000Z,5
2022-08-29T04:26:19.000Z,5
2022-08-29T04:27:35.000Z,5
2022-08-29T04:28:50.000Z,5
2022-08-29T04:30:06.000Z,5
2022-08-29T04:31:22.000Z,11
2022-08-29T04:32:39.000Z,11
2022-08-29T04:33:55.000Z,11
2022-08-29T04:35:11.000Z,11
2022-08-29T04:36:27.000Z,11
2022-08-29T04:37:42.000Z,11
2022-08-29T04:38:58.000Z,11
2022-08-29T04:40:14.000Z,16
2022-08-29T04:41:30.000Z,16
2022-08-29T04:42:46.000Z,22
2022-08-29T04:44:02.000Z,22
2022-08-29T04:45:19.000Z,22
2022-08-29T04:46:35.000Z,28
2022-08-29T04:47:51.000Z,28
2022-08-29T04:49:07.000Z,33
2022-08-29T04:50:23.000Z,39
2022-08-29T04:51:40.000Z,39
2022-08-29T04:52:56.000Z,39
2022-08-29T04:54:12.000Z,39
2022-08-29T04:55:27.000Z,39
2022-08-29T04:56:43.000Z,45
2022-08-29T04:58:00.000Z,45
2022-08-29T04:59:16.000Z,50
2022-08-29T05:00:32.000Z,50
2022-08-29T05:01:48.000Z,56
2022-08-29T05:03:04.000Z,56
2022-08-29T05:04:20.000Z,61
2022-08-29T05:05:35.000Z,67
2022-08-29T05:06:50.000Z,73
2022-08-29T05:08:05.000Z,78
2022-08-29T05:09:21.000Z,90
2022-08-29T05:10:38.000Z,95
2022-08-29T05:11:53.000Z,101
2022-08-29T05:13:08.000Z,106
2022-08-29T05:14:24.000Z,118
2022-08-29T05:15:40.000Z,129
2022-08-29T05:16:57.000Z,135
2022-08-29T05:18:13.000Z,146
2022-08-29T05:19:29.000Z,157
2022-08-29T05:20:45.000Z,163
2022-08-29T05:22:01.000Z,174
2022-08-29T05:23:18.000Z,185
2022-08-29T05:24:34.000Z,185
2022-08-29T05:25:50.000Z,180
2022-08-29T05:27:06.000Z,180
2022-08-29T05:28:22.000Z,196
2022-08-29T05:29:38.000Z,208
2022-08-29T05:30:54.000Z,219
2022-08-29T05:32:10.000Z,241
2022-08-29T05:33:26.000Z,258
2022-08-29T05:34:42.000Z,264
2022-08-29T05:35:59.000Z,275
2022-08-29T05:37:15.000Z,281
2022-08-29T05:38:30.000Z,286
2022-08-29T05:39:45.000Z,292
2022-08-29T05:41:01.000Z,298
2022-08-29T05:42:17.000Z,303
2022-08-29T05:43:32.000Z,315
2022-08-29T05:44:48.000Z,343
2022-08-29T05:46:04.000Z,360
2022-08-29T05:48:37.000Z,410
2022-08-29T05:49:53.000Z,556
2022-08-29T05:51:09.000Z,1524
2022-08-29T05:52:25.000Z,1906
2022-08-29T05:53:41.000Z,1625
2022-08-29T05:54:58.000Z,1665
2022-08-29T05:56:14.000Z,1248
2022-08-29T05:57:30.000Z,1153
2022-08-29T05:58:46.000Z,1417
2022-08-29T06:00:01.000Z,1231
2022-08-29T06:01:17.000Z,1198
2022-08-29T06:02:34.000Z,1136
2022-08-29T06:03:50.000Z,1293
2022-08-29T06:05:06.000Z,1305
2022-08-29T06:06:22.000Z,1535
2022-08-29T06:07:38.000Z,1501
2022-08-29T06:08:55.000Z,1333
2022-08-29T06:10:10.000Z,1181
2022-08-29T06:11:25.000Z,1636
2022-08-29T06:12:41.000Z,1918
2022-08-29T06:13:57.000Z,1586
2022-08-29T06:15:12.000Z,1575
2022-08-29T06:16:28.000Z,1687
2022-08-29T06:17:44.000Z,2176
2022-08-29T06:19:00.000Z,2514
2022-08-29T06:20:16.000Z,2463
2022-08-29T06:21:33.000Z,1648
2022-08-29T06:22:49.000Z,1620
2022-08-29T06:24:04.000Z,1670
2022-08-29T06:25:20.000Z,1265
2022-08-29T06:26:36.000Z,1912
2022-08-29T06:27:53.000Z,1805
2022-08-29T06:29:09.000Z,1485
2022-08-29T06:30:25.000Z,1395
2022-08-29T06:31:41.000Z,1783
2022-08-29T06:32:57.000Z,1456
2022-08-29T06:34:14.000Z,1698
2022-08-29T06:35:30.000Z,1906
2022-08-29T06:36:46.000Z,1760
2022-08-29T06:38:02.000Z,2047
2022-08-29T06:39:18.000Z,1721
2022-08-29T06:40:34.000Z,2441
2022-08-29T06:41:49.000Z,2413
2022-08-29T06:43:05.000Z,2576
2022-08-29T06:44:20.000Z,2452
2022-08-29T06:45:35.000Z,1895
2022-08-29T06:46:52.000Z,2008
2022-08-29T06:48:08.000Z,1681
2022-08-29T06:49:24.000Z,1552
2022-08-29T06:50:40.000Z,1901
2022-08-29T06:51:56.000Z,2986
2022-08-29T06:53:13.000Z,2503
2022-08-29T06:54:29.000Z,2626
2022-08-29T06:55:45.000Z,1805
2022-08-29T06:57:01.000Z,2795
2022-08-29T06:58:17.000Z,3133
2022-08-29T06:59:34.000Z,2508
2022-08-29T07:00:50.000Z,3166
2022-08-29T07:02:05.000Z,2773
2022-08-29T07:03:21.000Z,1861
2022-08-29T07:04:37.000Z,2368
2022-08-29T07:05:54.000Z,2030
2022-08-29T07:07:10.000Z,1935
2022-08-29T07:08:26.000Z,1417
2022-08-29T07:09:42.000Z,1203
2022-08-29T07:10:57.000Z,1580
2022-08-29T07:12:13.000Z,1361
2022-08-29T07:13:28.000Z,950
2022-08-29T07:15:59.000Z,1113
2022-08-29T07:17:15.000Z,1496
2022-08-29T07:19:48.000Z,1440
2022-08-29T07:21:04.000Z,1603
2022-08-29T07:22:20.000Z,1800
2022-08-29T07:23:36.000Z,1648
2022-08-29T07:24:53.000Z,1890
2022-08-29T07:26:09.000Z,2261
2022-08-29T07:27:25.000Z,1783
2022-08-29T07:28:41.000Z,945
2022-08-29T07:29:57.000Z,1192
2022-08-29T07:31:13.000Z,1282
2022-08-29T07:32:29.000Z,1726
2022-08-29T07:33:45.000Z,1563
2022-08-29T07:35:01.000Z,1906
2022-08-29T07:36:17.000Z,2396
2022-08-29T07:37:34.000Z,2857
2022-08-29T07:38:50.000Z,2323
2022-08-29T07:40:06.000Z,2351
2022-08-29T07:41:22.000Z,2379
2022-08-29T07:42:37.000Z,2925
2022-08-29T07:43:53.000Z,3121
2022-08-29T07:45:09.000Z,2885
2022-08-29T07:46:25.000Z,3465
2022-08-29T07:47:40.000Z,2846
2022-08-29T07:48:55.000Z,3138
2022-08-29T07:50:12.000Z,3476
2022-08-29T07:51:28.000Z,3240
2022-08-29T07:54:00.000Z,3825
2022-08-29T07:55:16.000Z,3549
2022-08-29T07:56:33.000Z,3121
2022-08-29T07:57:49.000Z,2992
2022-08-29T07:59:05.000Z,2795
2022-08-29T08:00:21.000Z,2638
2022-08-29T08:01:37.000Z,2863
2022-08-29T08:02:54.000Z,2143
2022-08-29T08:04:10.000Z,2373
2022-08-29T08:05:25.000Z,2306
2022-08-29T08:06:41.000Z,2115
2022-08-29T08:07:57.000Z,2278
2022-08-29T08:09:14.000Z,2407
2022-08-29T08:10:30.000Z,2401
2022-08-29T08:11:46.000Z,2863
2022-08-29T08:13:02.000Z,3436
2022-08-29T08:14:18.000Z,3594
2022-08-29T08:15:34.000Z,3465
2022-08-29T08:16:49.000Z,4044
2022-08-29T08:18:05.000Z,3847
2022-08-29T08:19:21.000Z,2885
2022-08-29T08:20:37.000Z,2604
2022-08-29T08:21:53.000Z,2666
2022-08-29T08:23:08.000Z,2733
2022-08-29T08:24:24.000Z,2401
2022-08-29T08:25:40.000Z,2300
2022-08-29T08:26:56.000Z,2576
2022-08-29T08:28:13.000Z,3268
2022-08-29T08:29:29.000Z,4353
2022-08-29T08:30:45.000Z,4162
2022-08-29T08:32:01.000Z,3920
2022-08-29T08:33:17.000Z,3645
2022-08-29T08:34:34.000Z,3403
2022-08-29T08:35:50.000Z,3054
2022-08-29T08:37:06.000Z,2520
2022-08-29T08:38:22.000Z,2058
2022-08-29T08:39:37.000Z,2272
2022-08-29T08:40:53.000Z,1760
2022-08-29T08:42:10.000Z,1890
2022-08-29T08:44:42.000Z,888
2022-08-29T08:45:58.000Z,759
2022-08-29T08:47:14.000Z,658
2022-08-29T08:48:31.000Z,613
2022-08-29T08:49:46.000Z,596
2022-08-29T08:51:01.000Z,517
2022-08-29T08:52:17.000Z,511
2022-08-29T08:53:33.000Z,703
2022-08-29T08:54:50.000Z,1096
2022-08-29T08:56:06.000Z,967
2022-08-29T08:57:22.000Z,956
2022-08-29T08:58:38.000Z,1102
2022-08-29T08:59:54.000Z,916
2022-08-29T09:01:11.000Z,776
2022-08-29T09:02:27.000Z,652
2022-08-29T09:03:43.000Z,511
2022-08-29T09:04:59.000Z,489
2022-08-29T09:06:15.000Z,444
2022-08-29T09:07:31.000Z,421
2022-08-29T09:08:47.000Z,416
2022-08-29T09:10:03.000Z,444
2022-08-29T09:11:19.000Z,421
2022-08-29T09:12:35.000Z,405
2022-08-29T09:13:52.000Z,427
2022-08-29T09:15:08.000Z,433
2022-08-29T09:16:23.000Z,455
2022-08-29T09:17:38.000Z,466
2022-08-29T09:18:53.000Z,483
2022-08-29T09:20:09.000Z,500
2022-08-29T09:22:41.000Z,568
2022-08-29T09:23:56.000Z,517
2022-08-29T09:25:11.000Z,500
2022-08-29T09:26:28.000Z,489
2022-08-29T09:27:44.000Z,478
2022-08-29T09:29:00.000Z,483
2022-08-29T09:30:16.000Z,517
2022-08-29T09:31:32.000Z,618
2022-08-29T09:32:49.000Z,725
2022-08-29T09:34:05.000Z,753
2022-08-29T09:35:21.000Z,714
2022-08-29T09:36:37.000Z,697
2022-08-29T09:37:53.000Z,686
2022-08-29T09:39:10.000Z,669
2022-08-29T09:40:26.000Z,646
2022-08-29T09:41:41.000Z,691
2022-08-29T09:42:57.000Z,686
2022-08-29T09:44:13.000Z,748
2022-08-29T09:45:30.000Z,798
2022-08-29T09:46:46.000Z,708
2022-08-29T09:48:02.000Z,675
2022-08-29T09:49:18.000Z,686
2022-08-29T09:50:33.000Z,691
2022-08-29T09:51:49.000Z,686
2022-08-29T09:53:04.000Z,748
2022-08-29T09:54:19.000Z,748
2022-08-29T09:55:35.000Z,708
2022-08-29T09:56:51.000Z,708
2022-08-29T09:58:08.000Z,658
2022-08-29T10:00:40.000Z,528
2022-08-29T10:01:56.000Z,495
2022-08-29T10:03:12.000Z,483
2022-08-29T10:04:29.000Z,523
2022-08-29T10:05:45.000Z,540
2022-08-29T10:07:01.000Z,635
2022-08-29T10:08:17.000Z,652
2022-08-29T10:09:33.000Z,601
2022-08-29T10:10:49.000Z,624
2022-08-29T10:12:05.000Z,680
2022-08-29T10:13:21.000Z,652
2022-08-29T10:14:37.000Z,585
2022-08-29T10:15:53.000Z,568
2022-08-29T10:17:10.000Z,590
2022-08-29T10:18:26.000Z,590
2022-08-29T10:19:42.000Z,562
2022-08-29T10:20:57.000Z,545
2022-08-29T10:22:12.000Z,556
2022-08-29T10:23:29.000Z,601
2022-08-29T10:24:45.000Z,590
2022-08-29T10:26:01.000Z,573
2022-08-29T10:27:17.000Z,630
2022-08-29T10:28:33.000Z,596
2022-08-29T10:29:50.000Z,573
2022-08-29T10:31:06.000Z,562
2022-08-29T10:32:22.000Z,562
2022-08-29T10:33:38.000Z,540
2022-08-29T10:34:54.000Z,551
2022-08-29T10:36:10.000Z,551
2022-08-29T10:38:43.000Z,545
2022-08-29T10:39:58.000Z,534
2022-08-29T10:41:14.000Z,506
2022-08-29T10:42:30.000Z,455
2022-08-29T10:43:47.000Z,511
2022-08-29T10:45:03.000Z,534
2022-08-29T10:46:19.000Z,540
2022-08-29T10:47:35.000Z,540
2022-08-29T10:48:50.000Z,528
2022-08-29T10:50:06.000Z,556
2022-08-29T10:51:21.000Z,540
2022-08-29T10:52:36.000Z,562
2022-08-29T10:53:52.000Z,551
2022-08-29T10:55:08.000Z,540
2022-08-29T10:56:25.000Z,511
2022-08-29T10:57:41.000Z,517
2022-08-29T10:58:57.000Z,534
2022-08-29T11:00:13.000Z,517
2022-08-29T11:01:29.000Z,472
2022-08-29T11:02:46.000Z,455
2022-08-29T11:04:02.000Z,405
2022-08-29T11:05:18.000Z,393
2022-08-29T11:06:34.000Z,388
2022-08-29T11:07:50.000Z,393
2022-08-29T11:09:06.000Z,416
2022-08-29T11:10:22.000Z,438
2022-08-29T11:11:38.000Z,444
2022-08-29T11:12:54.000Z,438
2022-08-29T11:14:10.000Z,444
2022-08-29T11:16:43.000Z,466
2022-08-29T11:17:59.000Z,472
2022-08-29T11:19:14.000Z,466
2022-08-29T11:20:29.000Z,455
2022-08-29T11:21:46.000Z,450
2022-08-29T11:23:02.000Z,461
2022-08-29T11:24:18.000Z,483
2022-08-29T11:25:34.000Z,489
2022-08-29T11:26:50.000Z,495
2022-08-29T11:28:07.000Z,489
2022-08-29T11:29:23.000Z,478
2022-08-29T11:30:39.000Z,478
2022-08-29T11:31:55.000Z,444
2022-08-29T11:33:11.000Z,421
2022-08-29T11:34:28.000Z,410
2022-08-29T11:35:44.000Z,405
2022-08-29T11:36:59.000Z,416
2022-08-29T11:38:15.000Z,427
2022-08-29T11:39:31.000Z,410
2022-08-29T11:40:48.000Z,399
2022-08-29T11:42:04.000Z,399
2022-08-29T11:43:20.000Z,410
2022-08-29T11:44:36.000Z,444
2022-08-29T11:45:51.000Z,455
2022-08-29T11:47:08.000Z,466
2022-08-29T11:48:23.000Z,455
2022-08-29T11:49:38.000Z,438
2022-08-29T11:50:53.000Z,421
2022-08-29T11:52:08.000Z,410
2022-08-29T11:54:41.000Z,399
2022-08-29T11:55:57.000Z,388
2022-08-29T11:57:13.000Z,376
2022-08-29T11:58:29.000Z,371
2022-08-29T11:59:46.000Z,365
2022-08-29T12:01:02.000Z,360
2022-08-29T12:02:18.000Z,371
2022-08-29T12:03:34.000Z,399
2022-08-29T12:04:50.000Z,399
2022-08-29T12:06:07.000Z,410
2022-08-29T12:07:23.000Z,416
2022-08-29T12:08:38.000Z,410
2022-08-29T12:09:54.000Z,399
2022-08-29T12:11:10.000Z,388
2022-08-29T12:12:27.000Z,388
2022-08-29T12:13:43.000Z,382
2022-08-29T12:14:59.000Z,365
2022-08-29T12:16:15.000Z,348
2022-08-29T12:17:31.000Z,337
2022-08-29T12:18:47.000Z,320
2022-08-29T12:20:02.000Z,303
2022-08-29T12:21:17.000Z,298
2022-08-29T12:22:32.000Z,275
2022-08-29T12:23:48.000Z,275
2022-08-29T12:25:05.000Z,281
2022-08-29T12:26:21.000Z,281
2022-08-29T12:27:37.000Z,292
2022-08-29T12:28:53.000Z,292
2022-08-29T12:30:09.000Z,292
2022-08-29T12:31:26.000Z,292
2022-08-29T12:32:42.000Z,286
2022-08-29T12:33:58.000Z,286
2022-08-29T12:35:14.000Z,286
2022-08-29T12:36:30.000Z,286
2022-08-29T12:37:47.000Z,292
2022-08-29T12:39:02.000Z,303
2022-08-29T12:40:18.000Z,298
2022-08-29T12:41:34.000Z,298
2022-08-29T12:42:50.000Z,286
2022-08-29T12:45:23.000Z,253
2022-08-29T12:46:39.000Z,270
2022-08-29T12:47:55.000Z,281
2022-08-29T12:49:10.000Z,281
2022-08-29T12:50:26.000Z,281
2022-08-29T12:51:41.000Z,286
2022-08-29T12:52:56.000Z,292
2022-08-29T12:54:12.000Z,270
2022-08-29T12:55:28.000Z,247
2022-08-29T12:56:45.000Z,247
2022-08-29T12:58:01.000Z,298
2022-08-29T12:59:17.000Z,298
2022-08-29T13:00:33.000Z,292
2022-08-29T13:01:49.000Z,298
2022-08-29T13:03:06.000Z,309
2022-08-29T13:04:22.000Z,281
2022-08-29T13:05:38.000Z,331
2022-08-29T13:06:54.000Z,337
2022-08-29T13:08:10.000Z,331
2022-08-29T13:09:26.000Z,309
2022-08-29T13:10:42.000Z,309
2022-08-29T13:11:58.000Z,309
2022-08-29T13:13:14.000Z,309
2022-08-29T13:14:30.000Z,275
2022-08-29T13:15:46.000Z,253
2022-08-29T13:17:03.000Z,258
2022-08-29T13:18:18.000Z,303
2022-08-29T13:19:33.000Z,298
2022-08-29T13:20:48.000Z,286
2022-08-29T13:23:20.000Z,292
2022-08-29T13:24:36.000Z,258
2022-08-29T13:25:52.000Z,270
2022-08-29T13:27:08.000Z,275
2022-08-29T13:28:25.000Z,270
2022-08-29T13:29:41.000Z,264
2022-08-29T13:30:57.000Z,275
2022-08-29T13:32:13.000Z,275
2022-08-29T13:33:29.000Z,236
2022-08-29T13:34:45.000Z,225
2022-08-29T13:36:02.000Z,202
2022-08-29T13:37:18.000Z,196
2022-08-29T13:38:33.000Z,196
2022-08-29T13:39:49.000Z,202
2022-08-29T13:41:05.000Z,225
2022-08-29T13:42:22.000Z,258
2022-08-29T13:43:38.000Z,247
2022-08-29T13:44:54.000Z,253
2022-08-29T13:46:10.000Z,219
2022-08-29T13:47:26.000Z,213
2022-08-29T13:48:42.000Z,275
2022-08-29T13:49:57.000Z,275
2022-08-29T13:51:13.000Z,281
2022-08-29T13:52:28.000Z,275
2022-08-29T13:53:44.000Z,264
2022-08-29T13:55:00.000Z,264
2022-08-29T13:56:16.000Z,258
2022-08-29T13:57:32.000Z,270
2022-08-29T13:58:48.000Z,202
2022-08-29T14:00:05.000Z,258
2022-08-29T14:01:21.000Z,219
2022-08-29T14:02:37.000Z,236
2022-08-29T14:03:53.000Z,253
2022-08-29T14:05:09.000Z,219
2022-08-29T14:06:25.000Z,258
2022-08-29T14:07:42.000Z,196
2022-08-29T14:08:58.000Z,247
2022-08-29T14:10:13.000Z,225
2022-08-29T14:11:29.000Z,191
2022-08-29T14:12:45.000Z,191
2022-08-29T14:14:02.000Z,185
2022-08-29T14:15:18.000Z,191
2022-08-29T14:16:34.000Z,270
2022-08-29T14:17:50.000Z,264
2022-08-29T14:19:05.000Z,264
2022-08-29T14:20:21.000Z,258
2022-08-29T14:21:37.000Z,253
2022-08-29T14:22:53.000Z,247
2022-08-29T14:24:09.000Z,247
2022-08-29T14:26:42.000Z,236
2022-08-29T14:27:58.000Z,236
2022-08-29T14:29:14.000Z,241
2022-08-29T14:30:30.000Z,236
2022-08-29T14:31:46.000Z,219
2022-08-29T14:33:03.000Z,247
2022-08-29T14:34:19.000Z,258
2022-08-29T14:35:35.000Z,253
2022-08-29T14:36:50.000Z,241
2022-08-29T14:39:23.000Z,213
2022-08-29T14:40:38.000Z,213
2022-08-29T14:41:53.000Z,241
2022-08-29T14:43:08.000Z,247
2022-08-29T14:44:24.000Z,247
2022-08-29T14:45:40.000Z,247
2022-08-29T14:46:56.000Z,253
2022-08-29T14:48:12.000Z,253
2022-08-29T14:49:28.000Z,253
2022-08-29T14:50:44.000Z,258
2022-08-29T14:52:01.000Z,258
2022-08-29T14:53:17.000Z,247
2022-08-29T14:54:32.000Z,241
2022-08-29T14:55:48.000Z,230
2022-08-29T14:57:04.000Z,219
2022-08-29T14:58:19.000Z,236
2022-08-29T14:59:35.000Z,241
2022-08-29T15:00:51.000Z,236
2022-08-29T15:02:07.000Z,241
2022-08-29T15:04:40.000Z,230
2022-08-29T15:05:56.000Z,163
2022-08-29T15:07:12.000Z,140
2022-08-29T15:08:28.000Z,140
2022-08-29T15:09:44.000Z,135
2022-08-29T15:11:01.000Z,135
2022-08-29T15:12:17.000Z,135
2022-08-29T15:13:33.000Z,140
2022-08-29T15:14:48.000Z,140
2022-08-29T15:16:04.000Z,151
2022-08-29T15:17:21.000Z,146
2022-08-29T15:19:53.000Z,151
2022-08-29T15:21:08.000Z,157
2022-08-29T15:22:23.000Z,157
2022-08-29T15:23:40.000Z,236
2022-08-29T15:24:56.000Z,236
2022-08-29T15:26:12.000Z,236
2022-08-29T15:27:28.000Z,230
2022-08-29T15:28:44.000Z,230
2022-08-29T15:30:01.000Z,191
2022-08-29T15:31:17.000Z,163
2022-08-29T15:32:33.000Z,225
2022-08-29T15:33:49.000Z,225
2022-08-29T15:35:04.000Z,225
2022-08-29T15:36:20.000Z,225
2022-08-29T15:37:36.000Z,225
2022-08-29T15:38:52.000Z,225
2022-08-29T15:40:08.000Z,219
2022-08-29T15:41:24.000Z,225
2022-08-29T15:42:41.000Z,225
2022-08-29T15:43:57.000Z,225
2022-08-29T15:45:13.000Z,225
2022-08-29T15:46:29.000Z,219
2022-08-29T15:47:45.000Z,219
2022-08-29T15:49:02.000Z,219
2022-08-29T15:50:18.000Z,219
2022-08-29T15:51:34.000Z,213
2022-08-29T15:52:49.000Z,202
2022-08-29T15:54:05.000Z,208
2022-08-29T15:55:22.000Z,123
2022-08-29T15:56:38.000Z,123
2022-08-29T15:57:54.000Z,123
2022-08-29T15:59:10.000Z,123
2022-08-29T16:00:26.000Z,185
2022-08-29T16:01:42.000Z,213
2022-08-29T16:02:57.000Z,208
2022-08-29T16:04:13.000Z,213
2022-08-29T16:05:28.000Z,219
2022-08-29T16:06:43.000Z,208
2022-08-29T16:08:00.000Z,157
2022-08-29T16:09:16.000Z,191
2022-08-29T16:10:32.000Z,135
2022-08-29T16:11:48.000Z,123
2022-08-29T16:13:04.000Z,123
2022-08-29T16:14:21.000Z,123
2022-08-29T16:15:37.000Z,123
2022-08-29T16:16:53.000Z,168
2022-08-29T16:18:09.000Z,208
2022-08-29T16:19:25.000Z,219
2022-08-29T16:20:42.000Z,230
2022-08-29T16:21:58.000Z,230
2022-08-29T16:23:13.000Z,236
2022-08-29T16:24:29.000Z,241
2022-08-29T16:25:45.000Z,241
2022-08-29T16:27:02.000Z,247
2022-08-29T16:28:18.000Z,241
2022-08-29T16:29:34.000Z,241
2022-08-29T16:30:50.000Z,225
2022-08-29T16:32:05.000Z,230
2022-08-29T16:33:21.000Z,208
2022-08-29T16:34:37.000Z,168
2022-08-29T16:35:52.000Z,168
2022-08-29T16:37:07.000Z,163
2022-08-29T16:38:23.000Z,151
2022-08-29T16:39:40.000Z,146
2022-08-29T16:40:56.000Z,135
2022-08-29T16:42:12.000Z,123
2022-08-29T16:43:28.000Z,123
2022-08-29T16:44:44.000Z,118
2022-08-29T16:46:01.000Z,118
2022-08-29T16:47:17.000Z,112
2022-08-29T16:48:33.000Z,112
2022-08-29T16:49:49.000Z,112
2022-08-29T16:51:05.000Z,118
2022-08-29T16:52:22.000Z,157
2022-08-29T16:53:37.000Z,168
2022-08-29T16:54:53.000Z,163
2022-08-29T16:56:09.000Z,157
2022-08-29T16:57:25.000Z,140
2022-08-29T16:58:42.000Z,135
2022-08-29T16:59:58.000Z,135
2022-08-29T17:01:14.000Z,118
2022-08-29T17:02:29.000Z,112
2022-08-29T17:03:44.000Z,112
2022-08-29T17:05:01.000Z,112
2022-08-29T17:06:17.000Z,112
2022-08-29T17:07:33.000Z,106
2022-08-29T17:08:49.000Z,106
2022-08-29T17:10:05.000Z,106
2022-08-29T17:11:22.000Z,106
2022-08-29T17:12:38.000Z,101
2022-08-29T17:13:54.000Z,101
2022-08-29T17:15:10.000Z,95
2022-08-29T17:16:26.000Z,95
2022-08-29T17:17:43.000Z,84
2022-08-29T17:18:59.000Z,78
2022-08-29T17:20:14.000Z,78
2022-08-29T17:21:30.000Z,78
2022-08-29T17:22:46.000Z,78
2022-08-29T17:24:03.000Z,84
2022-08-29T17:25:19.000Z,84
2022-08-29T17:26:35.000Z,84
2022-08-29T17:27:51.000Z,84
2022-08-29T17:29:06.000Z,78
2022-08-29T17:30:22.000Z,78
2022-08-29T17:31:38.000Z,78
2022-08-29T17:32:53.000Z,78
2022-08-29T17:34:08.000Z,73
2022-08-29T17:36:41.000Z,67
2022-08-29T17:37:56.000Z,67
2022-08-29T17:39:11.000Z,67
2022-08-29T17:40:27.000Z,61
2022-08-29T17:41:43.000Z,61
2022-08-29T17:43:00.000Z,56
2022-08-29T17:44:16.000Z,56
2022-08-29T17:45:32.000Z,56
2022-08-29T17:46:48.000Z,50
2022-08-29T17:48:04.000Z,50
2022-08-29T17:49:21.000Z,50
2022-08-29T17:50:37.000Z,45
2022-08-29T17:51:53.000Z,45
2022-08-29T17:53:09.000Z,45
2022-08-29T17:54:25.000Z,39
2022-08-29T17:55:41.000Z,39
2022-08-29T17:56:57.000Z,39
2022-08-29T17:58:13.000Z,33
2022-08-29T17:59:29.000Z,33
2022-08-29T18:00:45.000Z,33
2022-08-29T18:02:02.000Z,28
2022-08-29T18:03:18.000Z,28
2022-08-29T18:04:33.000Z,28
2022-08-29T18:05:48.000Z,28
2022-08-29T18:07:04.000Z,22
2022-08-29T18:08:21.000Z,22
2022-08-29T18:09:37.000Z,22
2022-08-29T18:10:53.000Z,16
2022-08-29T18:12:09.000Z,16
2022-08-29T18:13:25.000Z,16